createdAt,value
2018-07-28T07:43:36.519Z,64.61
2018-07-28T07:44:36.360Z,63.43
2018-07-28T07:45:36.737Z,63.29
2018-07-28T07:46:36.502Z,63.27
2018-07-28T07:47:37.610Z,63.48
2018-07-28T07:48:36.430Z,63.5
2018-07-28T07:49:36.548Z,63.54
2018-07-28T07:50:36.324Z,63.46
2018-07-28T07:51:36.436Z,63.36
2018-07-28T07:52:36.785Z,63.4
2018-07-28T07:53:36.509Z,63.4
2018-07-28T07:54:36.295Z,63.42
2018-07-28T07:55:36.756Z,63.39
2018-07-28T07:56:36.539Z,63.43
2018-07-28T07:57:36.620Z,63.47
2018-07-28T07:58:36.476Z,63.45
2018-07-28T07:59:36.722Z,63.5
2018-07-28T08:00:36.691Z,63.54
2018-07-28T08:01:36.583Z,63.55
2018-07-28T08:02:36.547Z,63.57
2018-07-28T08:03:36.615Z,63.6
2018-07-28T08:04:36.438Z,63.65
2018-07-28T08:05:36.608Z,63.67
2018-07-28T08:06:36.372Z,63.63
2018-07-28T08:07:36.712Z,63.7
2018-07-28T08:08:36.496Z,63.88
2018-07-28T08:09:36.609Z,63.84
2018-07-28T08:10:36.657Z,63.86
2018-07-28T08:11:36.695Z,63.89
2018-07-28T08:12:37.279Z,63.86
2018-07-28T08:13:36.588Z,63.99
2018-07-28T08:14:36.327Z,63.96
2018-07-28T08:15:36.250Z,63.93
2018-07-28T08:16:36.536Z,63.97
2018-07-28T08:17:36.668Z,63.95
2018-07-28T08:18:36.705Z,63.97
2018-07-28T08:19:36.544Z,63.99
2018-07-28T08:20:36.387Z,64
2018-07-28T08:21:36.658Z,63.98
2018-07-28T08:22:36.558Z,64.01
2018-07-28T08:23:36.881Z,64
2018-07-28T08:24:36.329Z,64.03
2018-07-28T08:25:36.461Z,63.99
2018-07-28T08:26:36.607Z,64.03
2018-07-28T08:27:36.299Z,64.01
2018-07-28T08:28:36.728Z,64
2018-07-28T08:29:36.493Z,63.96
2018-07-28T08:30:36.479Z,63.92
2018-07-28T08:31:36.378Z,63.97
2018-07-28T08:32:36.440Z,63.97
2018-07-28T08:33:36.290Z,63.91
2018-07-28T08:34:36.342Z,63.9
2018-07-28T08:35:36.574Z,63.96
2018-07-28T08:36:36.355Z,63.9
2018-07-28T08:37:36.452Z,63.94
2018-07-28T08:38:36.302Z,63.95
2018-07-28T08:39:36.415Z,63.94
2018-07-28T08:40:36.485Z,64.02
2018-07-28T08:41:36.341Z,64.05
2018-07-28T08:42:36.269Z,63.98
2018-07-28T08:43:36.327Z,64.01
2018-07-28T08:44:36.517Z,63.97
2018-07-28T08:45:36.259Z,64
2018-07-28T08:46:36.453Z,63.99
2018-07-28T08:47:36.242Z,63.97
2018-07-28T08:48:36.526Z,64.03
2018-07-28T08:49:37.594Z,63.99
2018-07-28T08:50:36.451Z,63.94
2018-07-28T08:51:36.330Z,63.97
2018-07-28T08:52:36.675Z,63.95
2018-07-28T08:53:36.436Z,63.88
2018-07-28T08:54:37.043Z,63.95
2018-07-28T08:55:37.934Z,65.58
2018-07-28T08:56:36.501Z,64.06
2018-07-28T08:57:36.531Z,64.13
2018-07-28T08:58:36.393Z,64.16
2018-07-28T08:59:36.555Z,64.14
2018-07-28T09:00:36.297Z,64.08
2018-07-28T09:01:36.582Z,64.03
2018-07-28T09:02:36.602Z,64.06
2018-07-28T09:03:36.790Z,64.08
2018-07-28T09:04:37.010Z,64.04
2018-07-28T09:05:36.874Z,64.08
2018-07-28T09:06:36.464Z,64.05
2018-07-28T09:07:36.879Z,64.04
2018-07-28T09:08:37.555Z,64.09
2018-07-28T09:09:36.270Z,64.09
2018-07-28T09:10:37.740Z,64.11
2018-07-28T09:11:36.473Z,64.06
2018-07-28T09:12:36.509Z,64.13
2018-07-28T09:13:36.663Z,64.07
2018-07-28T09:14:36.518Z,64.11
2018-07-28T09:15:36.350Z,64.12
2018-07-28T09:16:36.296Z,64.1
2018-07-28T09:17:36.365Z,64.14
2018-07-28T09:18:36.301Z,64.08
2018-07-28T09:19:36.734Z,64.09
2018-07-28T09:20:36.623Z,64.14
2018-07-28T09:21:36.409Z,64.07
2018-07-28T09:22:37.444Z,64.14
2018-07-28T09:23:37.506Z,64.13
2018-07-28T09:24:36.741Z,64.08
2018-07-28T09:25:36.534Z,64.37
2018-07-28T09:26:36.450Z,64.16
2018-07-28T09:27:36.382Z,64.07
2018-07-28T09:28:36.693Z,64.08
2018-07-28T09:29:36.480Z,64.23
2018-07-28T09:30:37.422Z,64.09
2018-07-28T09:31:36.409Z,64.33
2018-07-28T09:32:36.443Z,64.27
2018-07-28T09:33:36.837Z,64.22
2018-07-28T09:34:36.707Z,64.21
2018-07-28T09:35:36.496Z,64.16
2018-07-28T09:36:36.339Z,64.16
2018-07-28T09:37:36.701Z,64.17
2018-07-28T09:38:36.404Z,64.13
2018-07-28T09:39:36.508Z,64.1
2018-07-28T09:40:36.883Z,64.21
2018-07-28T09:41:36.555Z,64.15
2018-07-28T09:42:36.380Z,64.2
2018-07-28T09:43:36.437Z,64.28
2018-07-28T09:44:36.375Z,64.27
2018-07-28T09:45:36.445Z,64.3
2018-07-28T09:46:36.455Z,64.34
2018-07-28T09:47:36.233Z,64.36
2018-07-28T09:48:36.521Z,64.31
2018-07-28T09:49:36.568Z,64.28
2018-07-28T09:50:36.415Z,64.26
2018-07-28T09:51:36.464Z,64.2
2018-07-28T09:52:36.633Z,64.2
2018-07-28T09:53:36.389Z,64.32
2018-07-28T09:55:26.570Z,64.34
2018-07-28T09:55:36.680Z,64.45
2018-07-28T09:56:36.362Z,64.34
2018-07-28T09:57:36.306Z,64.33
2018-07-28T09:58:36.454Z,64.38
2018-07-28T09:59:36.443Z,64.58
2018-07-28T10:00:36.362Z,64.37
2018-07-28T10:01:36.474Z,64.28
2018-07-28T10:02:36.300Z,64.44
2018-07-28T10:03:36.520Z,64.48
2018-07-28T10:04:36.616Z,64.38
2018-07-28T10:05:37.961Z,64.43
2018-07-28T10:06:36.287Z,64.38
2018-07-28T10:07:36.564Z,64.35
2018-07-28T10:08:36.483Z,64.38
2018-07-28T10:09:36.444Z,64.34
2018-07-28T10:10:36.641Z,64.33
2018-07-28T10:11:36.399Z,64.44
2018-07-28T10:12:36.403Z,64.36
2018-07-28T10:13:36.442Z,64.67
2018-07-28T10:14:36.326Z,64.54
2018-07-28T10:15:36.224Z,64.55
2018-07-28T10:16:36.325Z,64.74
2018-07-28T10:17:36.383Z,64.42
2018-07-28T10:18:36.415Z,64.53
2018-07-28T10:19:36.744Z,64.6
2018-07-28T10:20:36.545Z,64.54
2018-07-28T10:21:36.291Z,64.52
2018-07-28T10:22:36.548Z,64.53
2018-07-28T10:23:36.437Z,64.54
2018-07-28T10:24:36.804Z,64.67
2018-07-28T10:25:36.414Z,64.61
2018-07-28T10:26:36.297Z,64.58
2018-07-28T10:27:36.483Z,64.53
2018-07-28T10:28:36.463Z,64.55
2018-07-28T10:29:36.480Z,64.69
2018-07-28T10:30:36.266Z,64.73
2018-07-28T10:31:37.357Z,64.71
2018-07-28T10:32:36.420Z,64.57
2018-07-28T10:33:36.227Z,64.61
2018-07-28T10:34:36.509Z,64.59
2018-07-28T10:35:36.404Z,64.73
2018-07-28T10:36:37.040Z,64.64
2018-07-28T10:37:36.740Z,64.66
2018-07-28T10:38:36.486Z,64.58
2018-07-28T10:39:36.503Z,64.68
2018-07-28T10:40:36.451Z,64.77
2018-07-28T10:41:36.333Z,64.78
2018-07-28T10:42:36.236Z,64.72
2018-07-28T10:43:36.459Z,64.73
2018-07-28T10:44:36.493Z,64.7
2018-07-28T10:45:37.313Z,64.67
2018-07-28T10:46:36.777Z,64.55
2018-07-28T10:47:36.428Z,64.64
2018-07-28T10:48:36.347Z,64.59
2018-07-28T10:49:36.592Z,64.57
2018-07-28T10:50:36.312Z,64.63
2018-07-28T10:51:36.335Z,64.63
2018-07-28T10:51:59.939Z,65.4
2018-07-28T10:52:58.889Z,65.39
2018-07-28T10:54:16.710Z,65.62
2018-07-28T10:55:17.082Z,65.54
2018-07-28T10:56:17.198Z,65.61
2018-07-28T10:57:16.887Z,65.54
2018-07-28T10:57:59.965Z,65.62
2018-07-28T10:59:00.342Z,65.69
2018-07-28T11:00:00.746Z,65.71
2018-07-28T11:01:00.010Z,65.73
2018-07-28T11:01:59.901Z,65.76
2018-07-28T11:03:00.104Z,65.7
2018-07-28T11:04:00.212Z,65.73
2018-07-28T11:04:59.862Z,65.7
2018-07-28T11:06:00.099Z,65.63
2018-07-28T11:07:14.852Z,65.73
2018-07-28T11:08:14.851Z,65.68
2018-07-28T11:09:15.932Z,65.58
2018-07-28T11:10:14.831Z,65.62
2018-07-28T11:11:14.820Z,65.71
2018-07-28T11:12:14.844Z,65.73
2018-07-28T11:13:14.874Z,65.72
2018-07-28T11:14:14.920Z,65.78
2018-07-28T11:15:14.785Z,65.76
2018-07-28T11:16:14.972Z,65.53
2018-07-28T11:17:15.011Z,65.54
2018-07-28T11:18:14.902Z,65.49
2018-07-28T11:19:14.887Z,65.25
2018-07-28T11:19:45.012Z,65.37
2018-07-28T11:20:58.788Z,65.21
2018-07-28T11:21:58.840Z,64.88
2018-07-28T11:22:58.978Z,64.96
2018-07-28T11:23:58.814Z,64.69
2018-07-28T11:24:59.063Z,64.48
2018-07-28T11:26:00.238Z,64.74
2018-07-28T11:26:58.907Z,64.53
2018-07-28T11:27:58.856Z,64.57
2018-07-28T11:28:58.929Z,64.62
2018-07-28T11:29:59.191Z,64.59
2018-07-28T11:30:59.006Z,64.6
2018-07-28T11:31:59.940Z,64.62
2018-07-28T11:32:58.932Z,64.64
2018-07-28T11:33:59.009Z,64.66
2018-07-28T11:34:58.985Z,64.67
2018-07-28T11:35:58.972Z,64.75
2018-07-28T11:36:58.809Z,64.76
2018-07-28T11:38:00.252Z,64.9
2018-07-28T11:38:59.002Z,64.97
2018-07-28T11:39:59.030Z,64.93
2018-07-28T11:40:59.008Z,64.97
2018-07-28T11:41:58.885Z,64.67
2018-07-28T11:42:58.850Z,64.79
2018-07-28T11:43:59.236Z,64.9
2018-07-28T11:44:58.864Z,64.9
2018-07-28T11:46:00.262Z,64.71
2018-07-28T11:46:59.050Z,64.52
2018-07-28T11:47:58.821Z,64.58
2018-07-28T11:48:59.071Z,64.57
2018-07-28T11:49:58.844Z,64.69
2018-07-28T11:50:58.889Z,64.65
2018-07-28T11:51:58.810Z,64.65
2018-07-28T11:52:58.908Z,64.63
2018-07-28T11:53:59.286Z,64.62
2018-07-28T11:54:58.879Z,64.57
2018-07-28T11:55:58.971Z,64.57
2018-07-28T11:56:58.856Z,64.56
2018-07-28T11:57:59.663Z,64.55
2018-07-28T11:58:59.138Z,64.53
2018-07-28T11:59:58.853Z,64.48
2018-07-28T12:00:58.994Z,64.47
2018-07-28T12:01:59.084Z,64.5
2018-07-28T12:02:58.968Z,64.46
2018-07-28T12:03:58.791Z,64.51
2018-07-28T12:04:59.071Z,64.49
2018-07-28T12:05:58.951Z,64.53
2018-07-28T12:06:59.039Z,64.46
2018-07-28T12:07:58.850Z,64.42
2018-07-28T12:08:58.852Z,64.41
2018-07-28T12:09:58.910Z,64.45
2018-07-28T12:10:59.192Z,64.42
2018-07-28T12:11:58.908Z,64.4
2018-07-28T12:12:59.039Z,64.43
2018-07-28T12:13:59.281Z,64.32
2018-07-28T12:14:58.928Z,64.38
2018-07-28T12:15:58.785Z,64.37
2018-07-28T12:16:58.810Z,64.36
2018-07-28T12:17:59.074Z,64.41
2018-07-28T12:18:58.913Z,64.45
2018-07-28T12:19:59.032Z,64.48
2018-07-28T12:20:59.032Z,64.44
2018-07-28T12:21:58.775Z,64.45
2018-07-28T12:22:59.001Z,64.41
2018-07-28T12:23:59.864Z,64.43
2018-07-28T12:24:59.027Z,64.36
2018-07-28T12:25:59.006Z,64.36
2018-07-28T12:26:59.052Z,64.42
2018-07-28T12:27:58.886Z,64.36
2018-07-28T12:28:59.084Z,64.41
2018-07-28T12:29:58.925Z,64.38
2018-07-28T12:30:58.762Z,64.4
2018-07-28T12:31:58.850Z,64.39
2018-07-28T12:32:58.965Z,64.37
2018-07-28T12:33:58.879Z,64.36
2018-07-28T12:35:00.451Z,64.33
2018-07-28T12:35:59.189Z,64.35
2018-07-28T12:36:59.028Z,64.37
2018-07-28T12:37:58.874Z,64.37
2018-07-28T12:38:59.022Z,64.35
2018-07-28T12:39:58.760Z,64.37
2018-07-28T12:40:59.495Z,64.34
2018-07-28T12:41:59.138Z,64.38
2018-07-28T12:42:59.008Z,64.36
2018-07-28T12:43:58.954Z,64.36
2018-07-28T12:44:59.038Z,64.36
2018-07-28T12:45:59.020Z,64.37
2018-07-28T12:46:59.082Z,64.36
2018-07-28T12:47:58.834Z,64.36
2018-07-28T12:48:58.779Z,64.35
2018-07-28T12:49:58.961Z,64.34
2018-07-28T12:50:58.857Z,64.35
2018-07-28T12:51:59.017Z,64.34
2018-07-28T12:52:58.921Z,64.33
2018-07-28T12:53:58.867Z,64.37
2018-07-28T12:54:58.925Z,64.36
2018-07-28T12:55:58.995Z,64.37
2018-07-28T12:56:58.881Z,64.41
2018-07-28T12:57:58.776Z,64.41
2018-07-28T12:58:58.935Z,64.43
2018-07-28T12:59:58.919Z,64.41
2018-07-28T13:00:58.895Z,64.42
2018-07-28T13:01:59.035Z,64.4
2018-07-28T13:02:58.977Z,64.37
2018-07-28T13:04:00.427Z,64.37
2018-07-28T13:04:58.890Z,64.38
2018-07-28T13:05:58.839Z,64.4
2018-07-28T13:06:58.771Z,64.42
2018-07-28T13:07:58.849Z,64.4
2018-07-28T13:08:59.093Z,64.41
2018-07-28T13:09:59.071Z,64.39
2018-07-28T13:10:58.782Z,64.39
2018-07-28T13:11:58.956Z,64.4
2018-07-28T13:12:59.257Z,64.4
2018-07-28T13:13:59.006Z,64.37
2018-07-28T13:14:59.287Z,64.4
2018-07-28T13:15:58.760Z,64.4
2018-07-28T13:16:59.774Z,64.4
2018-07-28T13:17:59.599Z,64.39
2018-07-28T13:18:58.946Z,64.37
2018-07-28T13:19:58.889Z,64.39
2018-07-28T13:20:59.048Z,64.38
2018-07-28T13:21:58.927Z,64.36
2018-07-28T13:22:58.872Z,64.38
2018-07-28T13:23:58.880Z,64.37
2018-07-28T13:24:58.909Z,64.33
2018-07-28T13:25:58.895Z,64.36
2018-07-28T13:26:58.895Z,64.37
2018-07-28T13:27:58.998Z,64.38
2018-07-28T13:28:58.872Z,64.39
2018-07-28T13:30:00.003Z,64.41
2018-07-28T13:30:59.075Z,64.41
2018-07-28T13:31:58.973Z,64.43
2018-07-28T13:32:58.971Z,64.42
2018-07-28T13:33:58.751Z,64.43
2018-07-28T13:34:58.910Z,64.41
2018-07-28T13:35:58.807Z,64.4
2018-07-28T13:36:58.841Z,64.31
2018-07-28T13:37:59.166Z,64.28
2018-07-28T13:38:58.803Z,64.2
2018-07-28T13:39:58.951Z,64.19
2018-07-28T13:40:58.998Z,64.2
2018-07-28T13:41:58.926Z,64.16
2018-07-28T13:42:58.777Z,64.15
2018-07-28T13:43:58.887Z,64.19
2018-07-28T13:44:58.823Z,64.23
2018-07-28T13:45:58.854Z,64.2
2018-07-28T13:46:58.850Z,64.21
2018-07-28T13:47:59.229Z,64.2
2018-07-28T13:48:59.063Z,64.19
2018-07-28T13:49:58.745Z,64.19
2018-07-28T13:50:58.990Z,64.18
2018-07-28T13:51:58.803Z,64.16
2018-07-28T13:52:58.975Z,64.16
2018-07-28T13:53:59.147Z,64.14
2018-07-28T13:54:58.782Z,64.12
2018-07-28T13:55:58.991Z,64.16
2018-07-28T13:56:58.953Z,64.09
2018-07-28T13:57:58.841Z,64.08
2018-07-28T13:58:59.055Z,64.12
2018-07-28T13:59:59.270Z,64.08
2018-07-28T14:00:58.925Z,64.1
2018-07-28T14:01:59.020Z,64.09
2018-07-28T14:02:58.929Z,64.13
2018-07-28T14:03:59.031Z,64.08
2018-07-28T14:04:58.804Z,64.29
2018-07-28T14:05:59.741Z,64.72
2018-07-28T14:06:59.110Z,64.35
2018-07-28T14:07:59.091Z,64.43
2018-07-28T14:08:58.901Z,64.46
2018-07-28T14:09:58.961Z,64.55
2018-07-28T14:10:58.974Z,64.42
2018-07-28T14:11:59.042Z,64.36
2018-07-28T14:12:59.107Z,64.37
2018-07-28T14:13:58.913Z,64.33
2018-07-28T14:15:00.179Z,64.41
2018-07-28T14:15:58.978Z,64.32
2018-07-28T14:16:58.914Z,64.34
2018-07-28T14:17:59.668Z,64.31
2018-07-28T14:18:58.871Z,64.35
2018-07-28T14:19:59.001Z,64.39
2018-07-28T14:20:59.068Z,64.37
2018-07-28T14:21:59.005Z,64.52
2018-07-28T14:22:59.008Z,64.4
2018-07-28T14:23:58.824Z,64.44
2018-07-28T14:24:59.800Z,64.39
2018-07-28T14:25:58.845Z,64.47
2018-07-28T14:26:58.795Z,64.31
2018-07-28T14:27:58.889Z,64.47
2018-07-28T14:28:59.022Z,64.44
2018-07-28T14:29:59.040Z,64.53
2018-07-28T14:30:58.972Z,64.37
2018-07-28T14:31:58.869Z,64.43
2018-07-28T14:32:58.929Z,64.37
2018-07-28T14:33:59.015Z,64.37
2018-07-28T14:34:58.830Z,64.43
2018-07-28T14:35:58.936Z,64.43
2018-07-28T14:36:58.746Z,64.4
2018-07-28T14:37:58.899Z,64.42
2018-07-28T14:38:58.879Z,64.38
2018-07-28T14:39:58.964Z,64.37
2018-07-28T14:40:58.897Z,64.36
2018-07-28T14:41:58.718Z,64.48
2018-07-28T14:42:58.837Z,64.38
2018-07-28T14:43:58.829Z,64.34
2018-07-28T14:44:59.035Z,64.39
2018-07-28T14:45:58.844Z,64.3
2018-07-28T14:46:58.823Z,64.31
2018-07-28T14:47:58.849Z,64.39
2018-07-28T14:48:58.874Z,64.41
2018-07-28T14:49:58.896Z,64.36
2018-07-28T14:50:58.741Z,64.36
2018-07-28T14:51:58.916Z,64.34
2018-07-28T14:52:59.014Z,64.37
2018-07-28T14:54:00.111Z,64.34
2018-07-28T14:54:58.834Z,64.33
2018-07-28T14:55:58.726Z,64.33
2018-07-28T14:56:58.975Z,64.31
2018-07-28T14:57:58.911Z,64.33
2018-07-28T14:58:58.881Z,64.3
2018-07-28T14:59:58.797Z,64.3
2018-07-28T15:00:58.782Z,64.33
2018-07-28T15:01:59.141Z,64.29
2018-07-28T15:02:59.121Z,64.31
2018-07-28T15:03:58.947Z,64.27
2018-07-28T15:04:58.955Z,64.3
2018-07-28T15:05:58.985Z,64.35
2018-07-28T15:06:59.680Z,64.26
2018-07-28T15:07:58.792Z,64.26
2018-07-28T15:08:59.296Z,64.28
2018-07-28T15:09:59.163Z,64.24
2018-07-28T15:10:58.907Z,64.21
2018-07-28T15:11:59.026Z,64.29
2018-07-28T15:12:58.994Z,64.25
2018-07-28T15:13:59.929Z,64.23
2018-07-28T15:14:59.003Z,64.2
2018-07-28T15:15:58.769Z,64.21
2018-07-28T15:16:59.032Z,64.26
2018-07-28T15:17:58.717Z,64.24
2018-07-28T15:18:58.820Z,64.22
2018-07-28T15:19:58.807Z,64.25
2018-07-28T15:20:58.983Z,64.42
2018-07-28T15:21:58.997Z,64.46
2018-07-28T15:22:58.812Z,64.56
2018-07-28T15:23:58.951Z,64.43
2018-07-28T15:24:58.956Z,64.33
2018-07-28T15:25:58.855Z,64.31
2018-07-28T15:26:58.704Z,64.24
2018-07-28T15:27:58.890Z,64.2
2018-07-28T15:28:59.964Z,64.16
2018-07-28T15:29:59.318Z,64.19
2018-07-28T15:30:59.045Z,64.24
2018-07-28T15:31:58.871Z,64.47
2018-07-28T15:32:59.052Z,64.6
2018-07-28T15:33:58.873Z,64.62
2018-07-28T15:34:58.952Z,64.59
2018-07-28T15:35:59.116Z,64.48
2018-07-28T15:36:59.915Z,64.5
2018-07-28T15:37:59.270Z,64.42
2018-07-28T15:38:59.329Z,64.41
2018-07-28T15:39:59.252Z,64.39
2018-07-28T15:40:58.794Z,64.39
2018-07-28T15:41:58.859Z,64.41
2018-07-28T15:42:58.863Z,64.39
2018-07-28T15:43:58.921Z,64.49
2018-07-28T15:44:58.713Z,64.48
2018-07-28T15:45:58.823Z,64.51
2018-07-28T15:46:59.064Z,64.53
2018-07-28T15:47:58.844Z,64.44
2018-07-28T15:48:59.106Z,64.43
2018-07-28T15:49:59.283Z,64.35
2018-07-28T15:50:58.785Z,64.36
2018-07-28T15:51:58.707Z,64.45
2018-07-28T15:52:58.800Z,64.43
2018-07-28T15:53:58.767Z,64.47
2018-07-28T15:54:58.779Z,64.55
2018-07-28T15:55:58.909Z,64.53
2018-07-28T15:56:58.798Z,64.55
2018-07-28T15:57:58.850Z,64.51
2018-07-28T15:58:58.728Z,64.47
2018-07-28T15:59:58.778Z,64.51
2018-07-28T16:00:58.785Z,64.48
2018-07-28T16:01:58.958Z,64.46
2018-07-28T16:02:58.941Z,64.48
2018-07-28T16:03:59.115Z,64.5
2018-07-28T16:04:58.728Z,64.5
2018-07-28T16:05:59.769Z,64.51
2018-07-28T16:06:58.727Z,64.42
2018-07-28T16:07:58.830Z,64.56
2018-07-28T16:08:59.044Z,64.48
2018-07-28T16:09:58.681Z,64.5
2018-07-28T16:10:58.927Z,64.52
2018-07-28T16:11:58.942Z,64.43
2018-07-28T16:12:58.938Z,64.45
2018-07-28T16:13:59.078Z,64.52
2018-07-28T16:14:58.879Z,64.46
2018-07-28T16:15:58.841Z,64.49
2018-07-28T16:16:59.051Z,64.4
2018-07-28T16:17:58.890Z,64.59
2018-07-28T16:18:58.679Z,64.83
2018-07-28T16:19:18.621Z,65.05
2018-07-28T16:20:18.847Z,64.61
2018-07-28T16:21:30.310Z,64.79
2018-07-28T16:22:30.409Z,64.59
2018-07-28T16:23:30.335Z,64.61
2018-07-28T16:24:30.191Z,64.65
2018-07-28T16:25:30.329Z,64.72
2018-07-28T16:26:30.414Z,64.65
2018-07-28T16:27:34.248Z,64.7
2018-07-28T16:28:30.505Z,64.64
2018-07-28T16:28:58.609Z,66.25
2018-07-28T16:29:58.662Z,64.88
2018-07-28T16:30:58.736Z,64.63
2018-07-28T16:31:58.877Z,64.5
2018-07-28T16:32:58.733Z,65.29
2018-07-28T16:33:58.932Z,64.3
2018-07-28T16:34:58.903Z,64.34
2018-07-28T16:35:58.693Z,64.29
2018-07-28T16:36:58.701Z,64.5
2018-07-28T16:37:58.792Z,64.37
2018-07-28T16:38:58.886Z,64.72
2018-07-28T16:39:58.797Z,64.53
2018-07-28T16:40:59.040Z,64.5
2018-07-28T16:41:58.877Z,64.65
2018-07-28T16:42:58.967Z,64.48
2018-07-28T16:43:58.811Z,64.5
2018-07-28T16:44:58.847Z,64.58
2018-07-28T16:45:58.681Z,64.48
2018-07-28T16:46:58.681Z,64.49
2018-07-28T16:47:58.867Z,64.45
2018-07-28T16:48:58.880Z,64.48
2018-07-28T16:49:58.886Z,64.46
2018-07-28T16:50:59.139Z,64.49
2018-07-28T16:51:58.838Z,64.48
2018-07-28T16:52:58.695Z,64.48
2018-07-28T16:53:58.673Z,64.5
2018-07-28T16:54:58.766Z,64.46
2018-07-28T16:55:58.915Z,64.47
2018-07-28T16:56:58.765Z,64.5
2018-07-28T16:57:58.825Z,64.5
2018-07-28T16:58:58.981Z,64.52
2018-07-28T16:59:58.962Z,64.49
2018-07-28T17:00:58.829Z,64.61
2018-07-28T17:01:58.925Z,64.59
2018-07-28T17:02:58.642Z,64.64
2018-07-28T17:03:58.658Z,64.63
2018-07-28T17:04:58.955Z,64.53
2018-07-28T17:05:58.930Z,64.53
2018-07-28T17:06:58.958Z,64.55
2018-07-28T17:07:58.759Z,64.58
2018-07-28T17:08:58.720Z,64.58
2018-07-28T17:09:58.684Z,64.66
2018-07-28T17:10:58.663Z,64.6
2018-07-28T17:11:58.642Z,64.56
2018-07-28T17:12:58.788Z,64.61
2018-07-28T17:13:59.392Z,64.64
2018-07-28T17:14:58.730Z,64.55
2018-07-28T17:15:58.936Z,64.57
2018-07-28T17:16:58.924Z,64.58
2018-07-28T17:17:58.797Z,64.64
2018-07-28T17:18:58.683Z,64.59
2018-07-28T17:19:58.886Z,64.57
2018-07-28T17:20:58.780Z,64.53
2018-07-28T17:21:58.895Z,64.52
2018-07-28T17:22:58.733Z,64.54
2018-07-28T17:23:58.841Z,64.51
2018-07-28T17:24:58.891Z,64.53
2018-07-28T17:25:58.923Z,64.53
2018-07-28T17:26:58.823Z,64.5
2018-07-28T17:27:58.866Z,64.52
2018-07-28T17:28:58.856Z,64.47
2018-07-28T17:29:58.707Z,64.48
2018-07-28T17:31:00.937Z,64.53
2018-07-28T17:31:58.961Z,64.5
2018-07-28T17:32:58.723Z,64.53
2018-07-28T17:33:58.806Z,64.51
2018-07-28T17:34:58.897Z,64.48
2018-07-28T17:35:58.757Z,64.5
2018-07-28T17:36:58.858Z,64.46
2018-07-28T17:37:59.009Z,64.46
2018-07-28T17:38:58.770Z,64.43
2018-07-28T17:39:58.886Z,64.46
2018-07-28T17:41:00.189Z,64.43
2018-07-28T17:41:58.886Z,64.41
2018-07-28T17:42:58.860Z,64.41
2018-07-28T17:43:58.974Z,64.43
2018-07-28T17:44:58.848Z,64.4
2018-07-28T17:45:58.739Z,64.45
2018-07-28T17:46:58.846Z,64.44
2018-07-28T17:47:58.749Z,64.44
2018-07-28T17:48:58.962Z,64.42
2018-07-28T17:49:58.967Z,64.41
2018-07-28T17:50:58.846Z,64.43
2018-07-28T17:51:58.879Z,64.4
2018-07-28T17:52:58.999Z,64.4
2018-07-28T17:53:59.035Z,64.42
2018-07-28T17:54:58.761Z,64.44
2018-07-28T17:55:58.960Z,64.41
2018-07-28T17:56:58.837Z,64.38
2018-07-28T17:57:58.853Z,64.42
2018-07-28T17:58:58.757Z,64.43
2018-07-28T18:00:00.723Z,64.46
2018-07-28T18:00:58.849Z,64.42
2018-07-28T18:01:58.879Z,64.44
2018-07-28T18:02:58.879Z,64.37
2018-07-28T18:03:58.914Z,64.38
2018-07-28T18:04:58.721Z,64.34
2018-07-28T18:05:58.716Z,64.36
2018-07-28T18:06:58.981Z,64.37
2018-07-28T18:07:58.788Z,64.38
2018-07-28T18:08:58.786Z,64.39
2018-07-28T18:09:58.832Z,64.39
2018-07-28T18:10:58.819Z,64.36
2018-07-28T18:11:58.724Z,64.35
2018-07-28T18:12:58.774Z,64.39
2018-07-28T18:13:59.010Z,64.37
2018-07-28T18:14:58.858Z,64.38
2018-07-28T18:15:58.906Z,64.36
2018-07-28T18:16:58.820Z,64.32
2018-07-28T18:17:59.077Z,64.37
2018-07-28T18:18:58.708Z,64.33
2018-07-28T18:19:58.931Z,64.33
2018-07-28T18:20:58.756Z,64.36
2018-07-28T18:21:58.810Z,64.3
2018-07-28T18:22:58.865Z,64.36
2018-07-28T18:24:00.069Z,64.29
2018-07-28T18:24:58.754Z,64.32
2018-07-28T18:25:59.276Z,64.3
2018-07-28T18:26:58.787Z,64.32
2018-07-28T18:27:58.823Z,64.33
2018-07-28T18:28:58.949Z,64.36
2018-07-28T18:29:58.736Z,64.27
2018-07-28T18:30:58.743Z,64.31
2018-07-28T18:31:58.866Z,64.32
2018-07-28T18:32:58.703Z,64.35
2018-07-28T18:33:58.835Z,64.32
2018-07-28T18:34:58.897Z,64.27
2018-07-28T18:35:58.705Z,64.28
2018-07-28T18:36:58.920Z,64.27
2018-07-28T18:37:58.847Z,64.28
2018-07-28T18:38:58.852Z,64.27
2018-07-28T18:39:58.676Z,64.29
2018-07-28T18:40:58.823Z,64.29
2018-07-28T18:41:58.710Z,64.26
2018-07-28T18:42:59.032Z,64.28
2018-07-28T18:43:58.871Z,64.25
2018-07-28T18:44:59.015Z,64.27
2018-07-28T18:45:58.919Z,64.27
2018-07-28T18:46:58.806Z,64.24
2018-07-28T18:47:59.044Z,64.24
2018-07-28T18:49:00.085Z,64.27
2018-07-28T18:49:58.990Z,64.26
2018-07-28T18:50:59.894Z,64.27
2018-07-28T18:51:58.927Z,64.28
2018-07-28T18:52:58.924Z,64.27
2018-07-28T18:53:58.732Z,64.24
2018-07-28T18:54:59.176Z,64.24
2018-07-28T18:55:58.884Z,64.27
2018-07-28T18:56:58.641Z,64.29
2018-07-28T18:57:58.820Z,64.21
2018-07-28T18:58:58.948Z,64.26
2018-07-28T18:59:58.751Z,64.28
2018-07-28T19:00:59.570Z,64.23
2018-07-28T19:01:58.813Z,64.23
2018-07-28T19:02:58.794Z,64.24
2018-07-28T19:03:59.127Z,64.24
2018-07-28T19:04:59.010Z,64.19
2018-07-28T19:05:58.708Z,64.18
2018-07-28T19:06:58.775Z,64.18
2018-07-28T19:07:58.737Z,64.22
2018-07-28T19:08:58.776Z,64.22
2018-07-28T19:09:58.658Z,64.25
2018-07-28T19:10:58.885Z,64.21
2018-07-28T19:11:59.794Z,64.2
2018-07-28T19:12:58.773Z,64.23
2018-07-28T19:13:58.729Z,64.22
2018-07-28T19:14:58.896Z,64.21
2018-07-28T19:15:58.881Z,64.55
2018-07-28T19:16:58.827Z,64.44
2018-07-28T19:17:59.210Z,64.43
2018-07-28T19:18:58.758Z,64.64
2018-07-28T19:19:58.997Z,64.68
2018-07-28T19:20:59.914Z,64.74
2018-07-28T19:21:58.721Z,64.62
2018-07-28T19:22:58.873Z,64.65
2018-07-28T19:23:58.837Z,64.63
2018-07-28T19:24:58.740Z,64.59
2018-07-28T19:25:58.741Z,64.57
2018-07-28T19:26:58.810Z,64.61
2018-07-28T19:27:58.941Z,64.68
2018-07-28T19:28:58.905Z,64.68
2018-07-28T19:29:58.708Z,64.78
2018-07-28T19:30:59.511Z,64.71
2018-07-28T19:31:58.861Z,64.76
2018-07-28T19:32:59.075Z,64.77
2018-07-28T19:33:58.766Z,64.7
2018-07-28T19:34:58.793Z,64.68
2018-07-28T19:35:58.629Z,64.75
2018-07-28T19:36:58.867Z,64.68
2018-07-28T19:37:58.797Z,64.69
2018-07-28T19:38:58.829Z,64.7
2018-07-28T19:39:58.776Z,64.67
2018-07-28T19:40:58.852Z,64.7
2018-07-28T19:41:58.717Z,64.7
2018-07-28T19:42:58.767Z,64.67
2018-07-28T19:43:58.750Z,64.71
2018-07-28T19:44:58.636Z,64.67
2018-07-28T19:45:58.682Z,64.74
2018-07-28T19:46:58.761Z,64.73
2018-07-28T19:47:58.833Z,64.7
2018-07-28T19:48:58.887Z,64.78
2018-07-28T19:49:58.902Z,64.75
2018-07-28T19:50:58.857Z,64.74
2018-07-28T19:51:58.684Z,64.77
2018-07-28T19:52:58.969Z,64.74
2018-07-28T19:53:58.889Z,64.7
2018-07-28T19:54:58.739Z,64.76
2018-07-28T19:55:58.680Z,64.72
2018-07-28T19:56:58.747Z,64.68
2018-07-28T19:57:58.837Z,64.66
2018-07-28T19:58:58.748Z,64.65
2018-07-28T19:59:58.878Z,64.69
2018-07-28T20:00:58.992Z,64.7
2018-07-28T20:01:58.740Z,64.69
2018-07-28T20:02:58.668Z,64.73
2018-07-28T20:03:58.790Z,64.74
2018-07-28T20:04:58.887Z,64.7
2018-07-28T20:05:58.808Z,64.67
2018-07-28T20:06:58.663Z,64.71
2018-07-28T20:07:58.987Z,64.71
2018-07-28T20:08:59.094Z,64.72
2018-07-28T20:09:58.791Z,64.83
2018-07-28T20:10:58.894Z,64.62
2018-07-28T20:11:58.632Z,64.66
2018-07-28T20:12:58.801Z,64.81
2018-07-28T20:13:59.629Z,64.74
2018-07-28T20:14:58.831Z,64.85
2018-07-28T20:15:58.886Z,64.92
2018-07-28T20:16:59.859Z,64.67
2018-07-28T20:17:58.838Z,64.74
2018-07-28T20:18:58.900Z,64.92
2018-07-28T20:19:58.991Z,64.84
2018-07-28T20:20:58.569Z,64.77
2018-07-28T20:21:58.908Z,64.85
2018-07-28T20:22:58.847Z,64.81
2018-07-28T20:23:58.860Z,64.72
2018-07-28T20:24:58.811Z,64.87
2018-07-28T20:25:58.724Z,64.87
2018-07-28T20:26:58.957Z,64.72
2018-07-28T20:27:58.682Z,64.91
2018-07-28T20:28:58.900Z,64.87
2018-07-28T20:29:59.254Z,64.68
2018-07-28T20:30:58.860Z,64.92
2018-07-28T20:31:59.597Z,64.87
2018-07-28T20:32:58.858Z,64.74
2018-07-28T20:33:59.108Z,64.85
2018-07-28T20:34:59.354Z,64.72
2018-07-28T20:35:58.795Z,64.73
2018-07-28T20:36:58.935Z,64.91